sensor_id;sensor_type;location;lat;lon;timestamp;pressure;altitude;pressure_sealevel;temperature;humidity
44734;BME280;30462;52.446;-1.930;2023-04-29T00:00:18;100412.4688;;;;
44734;BME280;30462;52.446;-1.930;2023-04-29T00:01:18;100413.2695;;;;
44734;BME280;30462;52.446;-1.930;2023-04-29T00:02:18;100413.2227;;;;
44734;BME280;30462;52.446;-1.930;2023-04-29T00:03:18;100412.7813;;;;
44734;BME280;30462;52.446;-1.930;2023-04-29T00:04:18;100416.8594;;;;
44734;BME280;30462;52.446;-1.930;2023-04-29T00:05:18;100413.8398;;;;
44734;BME280;30462;52.446;-1.930;2023-04-29T00:06:18;100415.9336;;;;
44734;BME280;30462;52.446;-1.930;2023-04-29T00:07:18;100416.1523;;;;
44734;BME280;30462;52.446;-1.930;2023-04-29T00:08:18;100417.3242;;;;
44734;BME280;30462;52.446;-1.930;2023-04-29T00:09:18;100419.5586;;;;
44734;BME280;30462;52.446;-1.930;2023-04-29T00:10:17;100418.5469;;;;
44734;BME280;30462;52.446;-1.930;2023-04-29T00:11:18;100422.5391;;;;
44734;BME280;30462;52.446;-1.930;2023-04-29T00:12:18;100421.1563;;;;
44734;BME280;30462;52.446;-1.930;2023-04-29T00:13:18;100424.0117;;;;
44734;BME280;30462;52.446;-1.930;2023-04-29T00:14:18;100421.5313;;;;
44734;BME280;30462;52.446;-1.930;2023-04-29T00:15:18;100425.8242;;;;
44734;BME280;30462;52.446;-1.930;2023-04-29T00:16:17;100425.0039;;;;
44734;BME280;30462;52.446;-1.930;2023-04-29T00:17:18;100429.1563;;;;
44734;BME280;30462;52.446;-1.930;2023-04-29T00:18:18;100424.7148;;;;
44734;BME280;30462;52.446;-1.930;2023-04-29T00:19:18;100427.7344;;;;
44734;BME280;30462;52.446;-1.930;2023-04-29T00:20:18;100425.6875;;;;
44734;BME280;30462;52.446;-1.930;2023-04-29T00:21:18;100422.6719;;;;
44734;BME280;30462;52.446;-1.930;2023-04-29T00:22:18;100426.457;;;;
44734;BME280;30462;52.446;-1.930;2023-04-29T00:23:18;100426.8047;;;;
44734;BME280;30462;52.446;-1.930;2023-04-29T00:24:18;100424.5898;;;;
44734;BME280;30462;52.446;-1.930;2023-04-29T00:25:18;100425.8555;;;;
44734;BME280;30462;52.446;-1.930;2023-04-29T00:26:18;100427.1016;;;;
44734;BME280;30462;52.446;-1.930;2023-04-29T00:27:18;100425.3086;;;;
44734;BME280;30462;52.446;-1.930;2023-04-29T00:28:18;100427.7031;;;;
44734;BME280;30462;52.446;-1.930;2023-04-29T00:29:17;100431.0664;;;;
44734;BME280;30462;52.446;-1.930;2023-04-29T00:30:18;100431.6836;;;;
44734;BME280;30462;52.446;-1.930;2023-04-29T00:31:18;100429.9258;;;;
44734;BME280;30462;52.446;-1.930;2023-04-29T00:32:18;100429.6133;;;;
44734;BME280;30462;52.446;-1.930;2023-04-29T00:33:18;100431.6641;;;;
44734;BME280;30462;52.446;-1.930;2023-04-29T00:34:17;100430.4297;;;;
44734;BME280;30462;52.446;-1.930;2023-04-29T00:35:18;100431.0781;;;;
44734;BME280;30462;52.446;-1.930;2023-04-29T00:36:18;100431.0898;;;;
44734;BME280;30462;52.446;-1.930;2023-04-29T00:37:18;100431.8438;;;;
44734;BME280;30462;52.446;-1.930;2023-04-29T00:38:18;100432.293;;;;
44734;BME280;30462;52.446;-1.930;2023-04-29T00:39:18;100430.7227;;;;
44734;BME280;30462;52.446;-1.930;2023-04-29T00:40:18;100427.5469;;;;
44734;BME280;30462;52.446;-1.930;2023-04-29T00:41:18;100427.6523;;;;
44734;BME280;30462;52.446;-1.930;2023-04-29T00:42:18;100425.9609;;;;
44734;BME280;30462;52.446;-1.930;2023-04-29T00:43:18;100427.457;;;;
44734;BME280;30462;52.446;-1.930;2023-04-29T00:44:18;100429.3203;;;;
44734;BME280;30462;52.446;-1.930;2023-04-29T00:45:18;100428.7227;;;;
44734;BME280;30462;52.446;-1.930;2023-04-29T00:46:18;100431.3438;;;;
44734;BME280;30462;52.446;-1.930;2023-04-29T00:47:18;100430.9609;;;;
44734;BME280;30462;52.446;-1.930;2023-04-29T00:48:18;100431.8789;;;;
44734;BME280;30462;52.446;-1.930;2023-04-29T00:49:18;100433.6367;;;;
44734;BME280;30462;52.446;-1.930;2023-04-29T00:50:18;100432.3047;;;;
44734;BME280;30462;52.446;-1.930;2023-04-29T00:51:18;100431.2227;;;;
44734;BME280;30462;52.446;-1.930;2023-04-29T00:52:18;100432.6992;;;;
44734;BME280;30462;52.446;-1.930;2023-04-29T00:53:18;100432.5781;;;;
44734;BME280;30462;52.446;-1.930;2023-04-29T00:54:18;100435.3281;;;;
44734;BME280;30462;52.446;-1.930;2023-04-29T00:55:18;100432.9023;;;;
44734;BME280;30462;52.446;-1.930;2023-04-29T00:56:18;100429.7031;;;;
44734;BME280;30462;52.446;-1.930;2023-04-29T00:57:18;100431.7891;;;;
44734;BME280;30462;52.446;-1.930;2023-04-29T00:58:18;100427.5078;;;;
44734;BME280;30462;52.446;-1.930;2023-04-29T00:59:18;100425.8203;;;;
44734;BME280;30462;52.446;-1.930;2023-04-29T01:00:18;100429.5547;;;;
44734;BME280;30462;52.446;-1.930;2023-04-29T01:01:18;100428.457;;;;
44734;BME280;30462;52.446;-1.930;2023-04-29T01:02:18;100429.7734;;;;
44734;BME280;30462;52.446;-1.930;2023-04-29T01:03:18;100426.2031;;;;
44734;BME280;30462;52.446;-1.930;2023-04-29T01:04:18;100428.9023;;;;
44734;BME280;30462;52.446;-1.930;2023-04-29T01:05:17;100428.8398;;;;
44734;BME280;30462;52.446;-1.930;2023-04-29T01:06:22;100424.0117;;;;
44734;BME280;30462;52.446;-1.930;2023-04-29T01:07:20;100425.9883;;;;
44734;BME280;30462;52.446;-1.930;2023-04-29T01:08:20;100424.3906;;;;
44734;BME280;30462;52.446;-1.930;2023-04-29T01:10:26;100426.1094;;;;
44734;BME280;30462;52.446;-1.930;2023-04-29T01:11:18;100427.5156;;;;
44734;BME280;30462;52.446;-1.930;2023-04-29T01:12:19;100429.4961;;;;
44734;BME280;30462;52.446;-1.930;2023-04-29T01:13:20;100428.5664;;;;
44734;BME280;30462;52.446;-1.930;2023-04-29T01:14:18;100428.9883;;;;
44734;BME280;30462;52.446;-1.930;2023-04-29T01:15:20;100428.9531;;;;
44734;BME280;30462;52.446;-1.930;2023-04-29T01:16:20;100426.5352;;;;
44734;BME280;30462;52.446;-1.930;2023-04-29T01:17:18;100429.7578;;;;
44734;BME280;30462;52.446;-1.930;2023-04-29T01:18:19;100429.5898;;;;
44734;BME280;30462;52.446;-1.930;2023-04-29T01:19:21;100430.5781;;;;
44734;BME280;30462;52.446;-1.930;2023-04-29T01:20:18;100426.1797;;;;
44734;BME280;30462;52.446;-1.930;2023-04-29T01:21:19;100429.793;;;;
44734;BME280;30462;52.446;-1.930;2023-04-29T01:22:17;100430.3516;;;;
44734;BME280;30462;52.446;-1.930;2023-04-29T01:23:18;100430.9766;;;;
44734;BME280;30462;52.446;-1.930;2023-04-29T01:24:18;100426.0273;;;;
44734;BME280;30462;52.446;-1.930;2023-04-29T01:25:18;100431.3008;;;;
44734;BME280;30462;52.446;-1.930;2023-04-29T01:26:18;100429.3984;;;;
44734;BME280;30462;52.446;-1.930;2023-04-29T01:28:20;100430.543;;;;
44734;BME280;30462;52.446;-1.930;2023-04-29T01:30:21;100427.7461;;;;
44734;BME280;30462;52.446;-1.930;2023-04-29T01:31:18;100428.7891;;;;
44734;BME280;30462;52.446;-1.930;2023-04-29T01:32:20;100431.2969;;;;
44734;BME280;30462;52.446;-1.930;2023-04-29T01:33:22;100429.2695;;;;
44734;BME280;30462;52.446;-1.930;2023-04-29T01:34:28;100429.2695;;;;
44734;BME280;30462;52.446;-1.930;2023-04-29T01:36:22;100431.1641;;;;
44734;BME280;30462;52.446;-1.930;2023-04-29T01:37:21;100432.3477;;;;
44734;BME280;30462;52.446;-1.930;2023-04-29T01:39:19;100430.3633;;;;
44734;BME280;30462;52.446;-1.930;2023-04-29T01:40:19;100432.7305;;;;
44734;BME280;30462;52.446;-1.930;2023-04-29T01:41:21;100431.8359;;;;
44734;BME280;30462;52.446;-1.930;2023-04-29T01:42:19;100431.2461;;;;
44734;BME280;30462;52.446;-1.930;2023-04-29T01:43:18;100431.793;;;;
44734;BME280;30462;52.446;-1.930;2023-04-29T01:44:19;100430.6914;;;;
44734;BME280;30462;52.446;-1.930;2023-04-29T01:45:18;100430.8594;;;;
44734;BME280;30462;52.446;-1.930;2023-04-29T01:46:19;100426.5781;;;;
44734;BME280;30462;52.446;-1.930;2023-04-29T01:47:18;100427.1836;;;;
44734;BME280;30462;52.446;-1.930;2023-04-29T01:48:17;100429.1719;;;;
44734;BME280;30462;52.446;-1.930;2023-04-29T01:49:19;100427.9102;;;;
44734;BME280;30462;52.446;-1.930;2023-04-29T01:50:18;100428.8984;;;;
44734;BME280;30462;52.446;-1.930;2023-04-29T01:51:18;100429.2266;;;;
44734;BME280;30462;52.446;-1.930;2023-04-29T01:52:18;100429.2266;;;;
44734;BME280;30462;52.446;-1.930;2023-04-29T01:53:18;100427.3008;;;;
44734;BME280;30462;52.446;-1.930;2023-04-29T01:54:18;100427.3711;;;;
44734;BME280;30462;52.446;-1.930;2023-04-29T01:55:18;100426.4961;;;;
44734;BME280;30462;52.446;-1.930;2023-04-29T01:56:18;100426.3477;;;;
44734;BME280;30462;52.446;-1.930;2023-04-29T01:57:18;100427.4453;;;;
44734;BME280;30462;52.446;-1.930;2023-04-29T01:58:18;100424.9766;;;;
44734;BME280;30462;52.446;-1.930;2023-04-29T01:59:18;100427.375;;;;
44734;BME280;30462;52.446;-1.930;2023-04-29T02:00:18;100426.168;;;;
44734;BME280;30462;52.446;-1.930;2023-04-29T02:01:18;100430.1758;;;;
44734;BME280;30462;52.446;-1.930;2023-04-29T02:02:18;100426.0664;;;;
44734;BME280;30462;52.446;-1.930;2023-04-29T02:03:18;100425.8945;;;;
44734;BME280;30462;52.446;-1.930;2023-04-29T02:04:18;100428.8164;;;;
44734;BME280;30462;52.446;-1.930;2023-04-29T02:05:18;100425.8125;;;;
44734;BME280;30462;52.446;-1.930;2023-04-29T02:06:18;100424.2266;;;;
44734;BME280;30462;52.446;-1.930;2023-04-29T02:07:18;100423.25;;;;
44734;BME280;30462;52.446;-1.930;2023-04-29T02:08:18;100424.5586;;;;
44734;BME280;30462;52.446;-1.930;2023-04-29T02:09:18;100423.7344;;;;
44734;BME280;30462;52.446;-1.930;2023-04-29T02:10:18;100424.4336;;;;
44734;BME280;30462;52.446;-1.930;2023-04-29T02:11:18;100424.5508;;;;
44734;BME280;30462;52.446;-1.930;2023-04-29T02:12:18;100425.9727;;;;
44734;BME280;30462;52.446;-1.930;2023-04-29T02:13:18;100422.2578;;;;
44734;BME280;30462;52.446;-1.930;2023-04-29T02:14:18;100423.2969;;;;
44734;BME280;30462;52.446;-1.930;2023-04-29T02:15:18;100423.3516;;;;
44734;BME280;30462;52.446;-1.930;2023-04-29T02:16:18;100423.8633;;;;
44734;BME280;30462;52.446;-1.930;2023-04-29T02:17:18;100426.9727;;;;
44734;BME280;30462;52.446;-1.930;2023-04-29T02:18:18;100427.4688;;;;
44734;BME280;30462;52.446;-1.930;2023-04-29T02:19:18;100423.8047;;;;
44734;BME280;30462;52.446;-1.930;2023-04-29T02:20:18;100421.8867;;;;
44734;BME280;30462;52.446;-1.930;2023-04-29T02:21:18;100422.8203;;;;
44734;BME280;30462;52.446;-1.930;2023-04-29T02:22:17;100424.5273;;;;
44734;BME280;30462;52.446;-1.930;2023-04-29T02:23:18;100426.5039;;;;
44734;BME280;30462;52.446;-1.930;2023-04-29T02:24:18;100427.2852;;;;
44734;BME280;30462;52.446;-1.930;2023-04-29T02:25:18;100428.9219;;;;
44734;BME280;30462;52.446;-1.930;2023-04-29T02:26:17;100425.1523;;;;
44734;BME280;30462;52.446;-1.930;2023-04-29T02:27:18;100426.1953;;;;
44734;BME280;30462;52.446;-1.930;2023-04-29T02:28:18;100425.875;;;;
44734;BME280;30462;52.446;-1.930;2023-04-29T02:29:18;100428.9336;;;;
44734;BME280;30462;52.446;-1.930;2023-04-29T02:30:17;100429.9141;;;;
44734;BME280;30462;52.446;-1.930;2023-04-29T02:31:18;100430.4219;;;;
44734;BME280;30462;52.446;-1.930;2023-04-29T02:32:18;100432.5625;;;;
44734;BME280;30462;52.446;-1.930;2023-04-29T02:33:18;100431.2891;;;;
44734;BME280;30462;52.446;-1.930;2023-04-29T02:34:18;100432.8789;;;;
44734;BME280;30462;52.446;-1.930;2023-04-29T02:35:18;100432.7734;;;;
44734;BME280;30462;52.446;-1.930;2023-04-29T02:36:18;100434.4297;;;;
44734;BME280;30462;52.446;-1.930;2023-04-29T02:37:17;100434.582;;;;
44734;BME280;30462;52.446;-1.930;2023-04-29T02:38:18;100432.9375;;;;
44734;BME280;30462;52.446;-1.930;2023-04-29T02:39:18;100434.3633;;;;
44734;BME280;30462;52.446;-1.930;2023-04-29T02:40:18;100434.793;;;;
44734;BME280;30462;52.446;-1.930;2023-04-29T02:41:18;100433.2734;;;;
44734;BME280;30462;52.446;-1.930;2023-04-29T02:42:18;100438.3711;;;;
44734;BME280;30462;52.446;-1.930;2023-04-29T02:43:18;100435.1289;;;;
44734;BME280;30462;52.446;-1.930;2023-04-29T02:44:18;100441.6445;;;;
44734;BME280;30462;52.446;-1.930;2023-04-29T02:45:17;100440.5586;;;;
44734;BME280;30462;52.446;-1.930;2023-04-29T02:46:18;100444.3906;;;;
44734;BME280;30462;52.446;-1.930;2023-04-29T02:47:18;100445.0508;;;;
44734;BME280;30462;52.446;-1.930;2023-04-29T02:48:18;100445.2734;;;;
44734;BME280;30462;52.446;-1.930;2023-04-29T02:49:18;100445.9883;;;;
44734;BME280;30462;52.446;-1.930;2023-04-29T02:50:18;100445.1641;;;;
44734;BME280;30462;52.446;-1.930;2023-04-29T02:51:18;100446.4727;;;;
44734;BME280;30462;52.446;-1.930;2023-04-29T02:52:18;100445.332;;;;
44734;BME280;30462;52.446;-1.930;2023-04-29T02:53:17;100448.6758;;;;
44734;BME280;30462;52.446;-1.930;2023-04-29T02:54:18;100449.4766;;;;
44734;BME280;30462;52.446;-1.930;2023-04-29T02:55:18;100447.8945;;;;
44734;BME280;30462;52.446;-1.930;2023-04-29T02:56:17;100450.5195;;;;
44734;BME280;30462;52.446;-1.930;2023-04-29T02:57:17;100449.4219;;;;
44734;BME280;30462;52.446;-1.930;2023-04-29T02:58:17;100450.2422;;;;
44734;BME280;30462;52.446;-1.930;2023-04-29T02:59:17;100450.7813;;;;
44734;BME280;30462;52.446;-1.930;2023-04-29T03:00:18;100446.082;;;;
44734;BME280;30462;52.446;-1.930;2023-04-29T03:01:17;100448.7148;;;;
44734;BME280;30462;52.446;-1.930;2023-04-29T03:02:18;100451.6133;;;;
44734;BME280;30462;52.446;-1.930;2023-04-29T03:03:18;100450.8984;;;;
44734;BME280;30462;52.446;-1.930;2023-04-29T03:04:18;100456.9805;;;;
44734;BME280;30462;52.446;-1.930;2023-04-29T03:05:18;100454.5156;;;;
44734;BME280;30462;52.446;-1.930;2023-04-29T03:06:18;100451.9297;;;;
44734;BME280;30462;52.446;-1.930;2023-04-29T03:07:18;100451.6172;;;;
44734;BME280;30462;52.446;-1.930;2023-04-29T03:08:18;100452.2656;;;;
44734;BME280;30462;52.446;-1.930;2023-04-29T03:09:18;100454.6719;;;;
44734;BME280;30462;52.446;-1.930;2023-04-29T03:10:18;100452.8633;;;;
44734;BME280;30462;52.446;-1.930;2023-04-29T03:11:18;100449.6328;;;;
44734;BME280;30462;52.446;-1.930;2023-04-29T03:12:18;100452.7148;;;;
44734;BME280;30462;52.446;-1.930;2023-04-29T03:13:18;100453.4766;;;;
44734;BME280;30462;52.446;-1.930;2023-04-29T03:14:18;100454.6875;;;;
44734;BME280;30462;52.446;-1.930;2023-04-29T03:15:18;100456.6992;;;;
44734;BME280;30462;52.446;-1.930;2023-04-29T03:16:17;100454.0234;;;;
44734;BME280;30462;52.446;-1.930;2023-04-29T03:17:18;100457.0352;;;;
44734;BME280;30462;52.446;-1.930;2023-04-29T03:18:18;100455.168;;;;
44734;BME280;30462;52.446;-1.930;2023-04-29T03:19:17;100456.2734;;;;
44734;BME280;30462;52.446;-1.930;2023-04-29T03:20:18;100460.2734;;;;
44734;BME280;30462;52.446;-1.930;2023-04-29T03:21:17;100459.2734;;;;
44734;BME280;30462;52.446;-1.930;2023-04-29T03:22:18;100457.5273;;;;
44734;BME280;30462;52.446;-1.930;2023-04-29T03:23:18;100454.668;;;;
44734;BME280;30462;52.446;-1.930;2023-04-29T03:24:18;100462.0625;;;;
44734;BME280;30462;52.446;-1.930;2023-04-29T03:25:18;100457.5742;;;;
44734;BME280;30462;52.446;-1.930;2023-04-29T03:26:18;100459.7695;;;;
44734;BME280;30462;52.446;-1.930;2023-04-29T03:27:18;100461.9023;;;;
44734;BME280;30462;52.446;-1.930;2023-04-29T03:28:18;100457.0742;;;;
44734;BME280;30462;52.446;-1.930;2023-04-29T03:29:18;100459.75;;;;
44734;BME280;30462;52.446;-1.930;2023-04-29T03:30:18;100464.4727;;;;
44734;BME280;30462;52.446;-1.930;2023-04-29T03:31:18;100463.4297;;;;
44734;BME280;30462;52.446;-1.930;2023-04-29T03:32:18;100460.6523;;;;
44734;BME280;30462;52.446;-1.930;2023-04-29T03:33:18;100459.2773;;;;
44734;BME280;30462;52.446;-1.930;2023-04-29T03:34:18;100459.6602;;;;
44734;BME280;30462;52.446;-1.930;2023-04-29T03:35:18;100461.9023;;;;
44734;BME280;30462;52.446;-1.930;2023-04-29T03:36:18;100464.1523;;;;
44734;BME280;30462;52.446;-1.930;2023-04-29T03:37:18;100461.0234;;;;
44734;BME280;30462;52.446;-1.930;2023-04-29T03:38:18;100461.1367;;;;
44734;BME280;30462;52.446;-1.930;2023-04-29T03:39:18;100461.6914;;;;
44734;BME280;30462;52.446;-1.930;2023-04-29T03:40:18;100463.7109;;;;
44734;BME280;30462;52.446;-1.930;2023-04-29T03:41:18;100461.2305;;;;
44734;BME280;30462;52.446;-1.930;2023-04-29T03:42:18;100461.7227;;;;
44734;BME280;30462;52.446;-1.930;2023-04-29T03:43:18;100464.6406;;;;
44734;BME280;30462;52.446;-1.930;2023-04-29T03:44:18;100460.1992;;;;
44734;BME280;30462;52.446;-1.930;2023-04-29T03:45:18;100462.832;;;;
44734;BME280;30462;52.446;-1.930;2023-04-29T03:46:17;100459.8516;;;;
44734;BME280;30462;52.446;-1.930;2023-04-29T03:47:18;100464.2539;;;;
44734;BME280;30462;52.446;-1.930;2023-04-29T03:48:18;100461.5547;;;;
44734;BME280;30462;52.446;-1.930;2023-04-29T03:49:18;100461.0039;;;;
44734;BME280;30462;52.446;-1.930;2023-04-29T03:50:18;100461.3516;;;;
44734;BME280;30462;52.446;-1.930;2023-04-29T03:51:18;100459.8125;;;;
44734;BME280;30462;52.446;-1.930;2023-04-29T03:52:18;100455.8086;;;;
44734;BME280;30462;52.446;-1.930;2023-04-29T03:53:18;100452.9063;;;;
44734;BME280;30462;52.446;-1.930;2023-04-29T03:54:18;100458.2969;;;;
44734;BME280;30462;52.446;-1.930;2023-04-29T03:55:18;100455.4414;;;;
44734;BME280;30462;52.446;-1.930;2023-04-29T03:56:18;100457.8516;;;;
44734;BME280;30462;52.446;-1.930;2023-04-29T03:57:18;100460.5977;;;;
44734;BME280;30462;52.446;-1.930;2023-04-29T03:58:18;100463.0195;;;;
44734;BME280;30462;52.446;-1.930;2023-04-29T03:59:18;100462.293;;;;
44734;BME280;30462;52.446;-1.930;2023-04-29T04:00:18;100466.5313;;;;
44734;BME280;30462;52.446;-1.930;2023-04-29T04:01:18;100464.1758;;;;
44734;BME280;30462;52.446;-1.930;2023-04-29T04:02:18;100462.7344;;;;
44734;BME280;30462;52.446;-1.930;2023-04-29T04:03:18;100463.7852;;;;
44734;BME280;30462;52.446;-1.930;2023-04-29T04:04:18;100460.6602;;;;
44734;BME280;30462;52.446;-1.930;2023-04-29T04:05:18;100463.5195;;;;
44734;BME280;30462;52.446;-1.930;2023-04-29T04:06:18;100460.1719;;;;
44734;BME280;30462;52.446;-1.930;2023-04-29T04:07:18;100462.5313;;;;
44734;BME280;30462;52.446;-1.930;2023-04-29T04:08:18;100460.6641;;;;
44734;BME280;30462;52.446;-1.930;2023-04-29T04:09:18;100460.2227;;;;
44734;BME280;30462;52.446;-1.930;2023-04-29T04:10:18;100459.6133;;;;
44734;BME280;30462;52.446;-1.930;2023-04-29T04:11:18;100461.707;;;;
44734;BME280;30462;52.446;-1.930;2023-04-29T04:12:17;100465.9258;;;;
44734;BME280;30462;52.446;-1.930;2023-04-29T04:13:17;100464.8789;;;;
44734;BME280;30462;52.446;-1.930;2023-04-29T04:14:17;100467.5195;;;;
44734;BME280;30462;52.446;-1.930;2023-04-29T04:15:18;100467.3008;;;;
44734;BME280;30462;52.446;-1.930;2023-04-29T04:16:18;100466.7422;;;;
44734;BME280;30462;52.446;-1.930;2023-04-29T04:17:18;100464.2891;;;;
44734;BME280;30462;52.446;-1.930;2023-04-29T04:18:17;100463.7891;;;;
44734;BME280;30462;52.446;-1.930;2023-04-29T04:19:18;100468.0195;;;;
44734;BME280;30462;52.446;-1.930;2023-04-29T04:20:18;100467.5313;;;;
44734;BME280;30462;52.446;-1.930;2023-04-29T04:21:17;100465.2734;;;;
44734;BME280;30462;52.446;-1.930;2023-04-29T04:22:18;100466.1523;;;;
44734;BME280;30462;52.446;-1.930;2023-04-29T04:23:18;100467.582;;;;
44734;BME280;30462;52.446;-1.930;2023-04-29T04:24:18;100470.5391;;;;
44734;BME280;30462;52.446;-1.930;2023-04-29T04:25:18;100470.7539;;;;
44734;BME280;30462;52.446;-1.930;2023-04-29T04:26:18;100471.3516;;;;
44734;BME280;30462;52.446;-1.930;2023-04-29T04:27:18;100469.668;;;;
44734;BME280;30462;52.446;-1.930;2023-04-29T04:28:18;100472.6094;;;;
44734;BME280;30462;52.446;-1.930;2023-04-29T04:29:18;100472.5625;;;;
44734;BME280;30462;52.446;-1.930;2023-04-29T04:30:18;100472.2266;;;;
44734;BME280;30462;52.446;-1.930;2023-04-29T04:31:18;100469.0586;;;;
44734;BME280;30462;52.446;-1.930;2023-04-29T04:32:18;100475.5352;;;;
44734;BME280;30462;52.446;-1.930;2023-04-29T04:33:17;100472.4531;;;;
44734;BME280;30462;52.446;-1.930;2023-04-29T04:34:17;100471.6797;;;;
44734;BME280;30462;52.446;-1.930;2023-04-29T04:35:18;100470.9258;;;;
44734;BME280;30462;52.446;-1.930;2023-04-29T04:36:17;100475.0313;;;;
44734;BME280;30462;52.446;-1.930;2023-04-29T04:37:18;100478.0391;;;;
44734;BME280;30462;52.446;-1.930;2023-04-29T04:38:18;100478.8125;;;;
44734;BME280;30462;52.446;-1.930;2023-04-29T04:39:18;100479.3555;;;;
44734;BME280;30462;52.446;-1.930;2023-04-29T04:40:18;100477.4414;;;;
44734;BME280;30462;52.446;-1.930;2023-04-29T04:41:18;100479.0859;;;;
44734;BME280;30462;52.446;-1.930;2023-04-29T04:42:18;100479.6953;;;;
44734;BME280;30462;52.446;-1.930;2023-04-29T04:43:18;100477.4961;;;;
44734;BME280;30462;52.446;-1.930;2023-04-29T04:44:17;100477.0117;;;;
44734;BME280;30462;52.446;-1.930;2023-04-29T04:45:18;100477.7656;;;;
44734;BME280;30462;52.446;-1.930;2023-04-29T04:46:18;100476.5195;;;;
44734;BME280;30462;52.446;-1.930;2023-04-29T04:47:18;100478;;;;
44734;BME280;30462;52.446;-1.930;2023-04-29T04:48:19;100474.2656;;;;
44734;BME280;30462;52.446;-1.930;2023-04-29T04:49:18;100474.4883;;;;
44734;BME280;30462;52.446;-1.930;2023-04-29T04:50:19;100476.5195;;;;
44734;BME280;30462;52.446;-1.930;2023-04-29T04:51:18;100478.707;;;;
44734;BME280;30462;52.446;-1.930;2023-04-29T04:52:18;100476.9375;;;;
44734;BME280;30462;52.446;-1.930;2023-04-29T04:53:18;100477.125;;;;
44734;BME280;30462;52.446;-1.930;2023-04-29T04:54:18;100476.4648;;;;
44734;BME280;30462;52.446;-1.930;2023-04-29T04:55:17;100478.9805;;;;
44734;BME280;30462;52.446;-1.930;2023-04-29T04:56:18;100478.3672;;;;
44734;BME280;30462;52.446;-1.930;2023-04-29T04:57:18;100481.2227;;;;
44734;BME280;30462;52.446;-1.930;2023-04-29T04:58:18;100480.25;;;;
44734;BME280;30462;52.446;-1.930;2023-04-29T04:59:18;100482.9844;;;;
44734;BME280;30462;52.446;-1.930;2023-04-29T05:00:18;100482.8633;;;;
44734;BME280;30462;52.446;-1.930;2023-04-29T05:01:18;100480.7227;;;;
44734;BME280;30462;52.446;-1.930;2023-04-29T05:02:18;100478.8672;;;;
44734;BME280;30462;52.446;-1.930;2023-04-29T05:03:18;100480.7773;;;;
44734;BME280;30462;52.446;-1.930;2023-04-29T05:04:18;100480.457;;;;
44734;BME280;30462;52.446;-1.930;2023-04-29T05:05:18;100479.082;;;;
44734;BME280;30462;52.446;-1.930;2023-04-29T05:06:18;100480.9531;;;;
44734;BME280;30462;52.446;-1.930;2023-04-29T05:07:18;100478.6367;;;;
44734;BME280;30462;52.446;-1.930;2023-04-29T05:08:18;100479.6328;;;;
44734;BME280;30462;52.446;-1.930;2023-04-29T05:09:18;100480.3984;;;;
44734;BME280;30462;52.446;-1.930;2023-04-29T05:10:18;100482.5391;;;;
44734;BME280;30462;52.446;-1.930;2023-04-29T05:11:18;100483.6875;;;;
44734;BME280;30462;52.446;-1.930;2023-04-29T05:12:18;100487.4141;;;;
44734;BME280;30462;52.446;-1.930;2023-04-29T05:13:18;100487.6953;;;;
44734;BME280;30462;52.446;-1.930;2023-04-29T05:14:18;100487.5313;;;;
44734;BME280;30462;52.446;-1.930;2023-04-29T05:15:18;100489.8203;;;;
44734;BME280;30462;52.446;-1.930;2023-04-29T05:16:18;100490.6367;;;;
44734;BME280;30462;52.446;-1.930;2023-04-29T05:17:18;100493.5586;;;;
44734;BME280;30462;52.446;-1.930;2023-04-29T05:18:18;100489.3789;;;;
44734;BME280;30462;52.446;-1.930;2023-04-29T05:19:18;100490.707;;;;
44734;BME280;30462;52.446;-1.930;2023-04-29T05:20:18;100491.0234;;;;
44734;BME280;30462;52.446;-1.930;2023-04-29T05:21:18;100490.1641;;;;
44734;BME280;30462;52.446;-1.930;2023-04-29T05:22:18;100492.0117;;;;
44734;BME280;30462;52.446;-1.930;2023-04-29T05:23:18;100493.8242;;;;
44734;BME280;30462;52.446;-1.930;2023-04-29T05:24:18;100495.6875;;;;
44734;BME280;30462;52.446;-1.930;2023-04-29T05:25:18;100498.1094;;;;
44734;BME280;30462;52.446;-1.930;2023-04-29T05:26:18;100498.1602;;;;
44734;BME280;30462;52.446;-1.930;2023-04-29T05:27:18;100501.8242;;;;
44734;BME280;30462;52.446;-1.930;2023-04-29T05:28:18;100498.8164;;;;
44734;BME280;30462;52.446;-1.930;2023-04-29T05:29:18;100503.5391;;;;
44734;BME280;30462;52.446;-1.930;2023-04-29T05:30:18;100502.2734;;;;
44734;BME280;30462;52.446;-1.930;2023-04-29T05:31:18;100503.582;;;;
44734;BME280;30462;52.446;-1.930;2023-04-29T05:32:18;100504.3438;;;;
44734;BME280;30462;52.446;-1.930;2023-04-29T05:33:18;100502.2656;;;;
44734;BME280;30462;52.446;-1.930;2023-04-29T05:34:18;100502.75;;;;
44734;BME280;30462;52.446;-1.930;2023-04-29T05:35:18;100506.0547;;;;
44734;BME280;30462;52.446;-1.930;2023-04-29T05:36:18;100504.3945;;;;
44734;BME280;30462;52.446;-1.930;2023-04-29T05:37:18;100505.9258;;;;
44734;BME280;30462;52.446;-1.930;2023-04-29T05:38:18;100508.5117;;;;
44734;BME280;30462;52.446;-1.930;2023-04-29T05:39:18;100507.4102;;;;
44734;BME280;30462;52.446;-1.930;2023-04-29T05:40:18;100508.7813;;;;
44734;BME280;30462;52.446;-1.930;2023-04-29T05:41:18;100508.3398;;;;
44734;BME280;30462;52.446;-1.930;2023-04-29T05:42:18;100509.7656;;;;
44734;BME280;30462;52.446;-1.930;2023-04-29T05:43:18;100509.0469;;;;
44734;BME280;30462;52.446;-1.930;2023-04-29T05:44:18;100510.3672;;;;
44734;BME280;30462;52.446;-1.930;2023-04-29T05:45:18;100510.918;;;;
44734;BME280;30462;52.446;-1.930;2023-04-29T05:46:18;100513.9922;;;;
44734;BME280;30462;52.446;-1.930;2023-04-29T05:47:18;100514.2148;;;;
44734;BME280;30462;52.446;-1.930;2023-04-29T05:48:18;100514.75;;;;
44734;BME280;30462;52.446;-1.930;2023-04-29T05:49:18;100517.6055;;;;
44734;BME280;30462;52.446;-1.930;2023-04-29T05:50:18;100520.7148;;;;